createdAt,value
2022-09-24T00:03:34.735Z,39.78
2022-09-24T00:08:37.698Z,35.80
2022-09-24T00:13:41.079Z,42.05
2022-09-24T00:18:43.840Z,38.28
2022-09-24T00:23:53.502Z,34.95
2022-09-24T00:28:56.900Z,36.90
2022-09-24T00:34:01.648Z,32.03
2022-09-24T00:39:04.958Z,34.10
2022-09-24T00:44:41.739Z,31.13
2022-09-24T00:49:45.137Z,26.35
2022-09-24T00:54:48.667Z,29.30
2022-09-24T00:59:51.559Z,27.77
2022-09-24T01:04:56.564Z,29.05
2022-09-24T01:09:59.396Z,24.83
2022-09-24T01:15:13.197Z,21.30
2022-09-24T01:20:18.968Z,26.52
2022-09-24T01:25:39.677Z,23.80
2022-09-24T01:30:43.386Z,22.75
2022-09-24T01:35:50.661Z,27.80
2022-09-24T01:40:55.690Z,24.58
2022-09-24T01:46:00.784Z,25.67
2022-09-24T01:51:06.953Z,26.08
2022-09-24T01:56:16.183Z,19.45
2022-09-24T02:01:23.140Z,25.60
2022-09-24T02:06:34.293Z,29.10
2022-09-24T02:11:37.580Z,21.70
2022-09-24T02:16:51.830Z,25.35
2022-09-24T02:21:57.076Z,24.10
2022-09-24T02:26:59.566Z,28.02
2022-09-24T02:32:04.028Z,25.85
2022-09-24T02:37:11.920Z,24.13
2022-09-24T02:42:15.765Z,32.25
2022-09-24T02:47:19.197Z,29.75
2022-09-24T02:52:22.790Z,30.77
2022-09-24T02:57:25.342Z,35.08
2022-09-24T03:02:28.143Z,25.77
2022-09-24T03:07:30.721Z,32.42
2022-09-24T03:12:33.290Z,28.52
2022-09-24T03:17:36.011Z,26.88
2022-09-24T03:22:38.737Z,27.48
2022-09-24T03:27:43.707Z,27.95
2022-09-24T03:32:48.455Z,28.52
2022-09-24T03:37:50.948Z,25.23
2022-09-24T03:42:53.635Z,27.20
2022-09-24T03:47:56.180Z,28.48
2022-09-24T03:52:58.719Z,30.65
2022-09-24T03:58:01.689Z,30.02
2022-09-24T04:03:04.892Z,27.92
2022-09-24T04:08:07.982Z,33.22
2022-09-24T04:13:13.291Z,29.98
2022-09-24T04:18:16.469Z,34.28
2022-09-24T04:23:19.066Z,25.05
2022-09-24T04:28:24.303Z,28.23
2022-09-24T04:33:27.485Z,25.73
2022-09-24T04:38:29.968Z,31.92
2022-09-24T04:43:33.477Z,27.92
2022-09-24T04:48:39.784Z,28.63
2022-09-24T04:53:42.530Z,33.53
2022-09-24T04:58:45.067Z,30.17
2022-09-24T05:03:47.675Z,29.23
2022-09-24T05:08:50.720Z,28.08
2022-09-24T05:13:54.948Z,28.17
2022-09-24T05:19:00.322Z,28.67
2022-09-24T05:24:03.155Z,28.20
2022-09-24T05:29:07.367Z,28.65
2022-09-24T05:34:10.223Z,27.98
2022-09-24T05:39:14.169Z,27.77
2022-09-24T05:44:19.831Z,23.13
2022-09-24T05:49:22.306Z,26.00
2022-09-24T05:54:25.246Z,29.20
2022-09-24T05:59:27.772Z,28.02
2022-09-24T06:04:31.182Z,23.23
2022-09-24T06:09:33.648Z,26.77
2022-09-24T06:14:38.663Z,28.05
2022-09-24T06:19:41.149Z,26.08
2022-09-24T06:24:43.744Z,27.35
2022-09-24T06:29:46.896Z,26.98
2022-09-24T06:34:51.664Z,27.37
2022-09-24T06:39:56.944Z,25.40
2022-09-24T06:45:00.874Z,29.75
2022-09-24T06:50:04.123Z,19.90
2022-09-24T06:55:06.982Z,30.58
2022-09-24T07:00:10.371Z,27.10
2022-09-24T07:05:32.620Z,32.58
2022-09-24T07:10:35.169Z,31.37
2022-09-24T07:15:38.272Z,31.85
2022-09-24T07:20:41.286Z,32.50
2022-09-24T07:25:44.405Z,31.17
2022-09-24T07:30:48.297Z,32.35
2022-09-24T07:35:54.051Z,34.03
2022-09-24T07:40:59.323Z,33.40
2022-09-24T07:46:02.339Z,36.83
2022-09-24T07:51:06.435Z,37.40
2022-09-24T07:56:09.064Z,36.33
2022-09-24T08:01:11.888Z,29.83
2022-09-24T08:06:15.931Z,33.70
2022-09-24T08:11:21.414Z,35.03
2022-09-24T08:16:25.949Z,34.17
2022-09-24T08:21:29.135Z,32.50
2022-09-24T08:26:32.082Z,31.50
2022-09-24T08:31:35.263Z,30.80
2022-09-24T08:36:42.663Z,33.10
2022-09-24T08:42:06.573Z,33.13
2022-09-24T08:47:31.203Z,31.03
2022-09-24T08:52:42.836Z,31.27
2022-09-24T08:58:10.810Z,31.02
2022-09-24T09:03:40.600Z,32.72
2022-09-24T09:09:11.859Z,30.48
2022-09-24T09:14:20.715Z,32.38
2022-09-24T09:19:31.890Z,29.02
2022-09-24T09:24:48.891Z,30.90
2022-09-24T09:29:56.770Z,30.95
2022-09-24T09:35:14.367Z,29.75
2022-09-24T09:40:31.573Z,30.50
2022-09-24T09:45:47.728Z,27.73
2022-09-24T09:50:54.528Z,26.60
2022-09-24T09:56:07.511Z,26.90
2022-09-24T10:01:13.115Z,27.92
2022-09-24T10:06:31.826Z,24.60
2022-09-24T10:11:34.397Z,18.00
2022-09-24T10:16:43.703Z,16.83
2022-09-24T10:21:46.929Z,23.67
2022-09-24T10:26:49.889Z,22.85
2022-09-24T10:31:52.644Z,24.60
2022-09-24T10:37:08.695Z,25.17
2022-09-24T10:42:25.515Z,23.58
2022-09-24T10:47:40.092Z,24.73
2022-09-24T10:52:54.045Z,23.23
2022-09-24T10:58:23.634Z,22.00
2022-09-24T11:03:45.181Z,21.63
2022-09-24T11:09:23.976Z,19.98
2022-09-24T11:14:58.725Z,17.48
2022-09-24T11:20:07.241Z,15.15
2022-09-24T11:26:07.953Z,15.25
2022-09-24T11:31:23.674Z,13.23
2022-09-24T11:36:26.855Z,11.75
2022-09-24T11:42:00.183Z,11.13
2022-09-24T11:47:17.705Z,11.88
2022-09-24T11:52:33.502Z,12.35
2022-09-24T11:58:26.583Z,10.48
2022-09-24T12:03:45.831Z,8.80
2022-09-24T12:09:01.562Z,6.75
2022-09-24T12:14:13.668Z,6.05
2022-09-24T12:19:27.373Z,6.07
2022-09-24T12:25:01.870Z,6.45
2022-09-24T12:30:39.991Z,6.03
2022-09-24T12:36:01.959Z,5.35
2022-09-24T12:41:25.330Z,5.03
2022-09-24T12:46:33.798Z,4.47
2022-09-24T12:51:39.869Z,4.10
2022-09-24T12:56:42.601Z,5.10
2022-09-24T13:01:45.496Z,4.43
2022-09-24T13:06:51.735Z,4.60
2022-09-24T13:12:20.100Z,5.32
2022-09-24T13:17:25.670Z,4.55
2022-09-24T13:22:31.795Z,5.43
2022-09-24T13:27:42.863Z,4.60
2022-09-24T13:32:59.670Z,5.13
2022-09-24T13:38:16.946Z,5.45
2022-09-24T13:43:49.133Z,6.32
2022-09-24T13:48:53.983Z,5.45
2022-09-24T13:54:05.436Z,5.25
2022-09-24T13:59:12.834Z,5.05
2022-09-24T14:04:20.959Z,5.90
2022-09-24T14:09:24.336Z,5.53
2022-09-24T14:14:29.856Z,6.32
2022-09-24T14:19:34.618Z,6.65
2022-09-24T14:25:19.559Z,6.00
2022-09-24T14:35:37.172Z,4.22
2022-09-24T14:40:45.456Z,3.80
2022-09-24T14:45:49.317Z,3.78
2022-09-24T14:51:30.519Z,3.63
2022-09-24T14:56:37.184Z,4.38
2022-09-24T15:01:39.871Z,3.10
2022-09-24T15:06:45.790Z,3.40
2022-09-24T15:11:48.684Z,3.88
2022-09-24T15:16:53.978Z,3.50
2022-09-24T15:21:58.094Z,3.25
2022-09-24T15:27:17.163Z,3.55
2022-09-24T15:32:20.764Z,3.80
2022-09-24T15:37:25.445Z,2.80
2022-09-24T15:42:28.254Z,3.15
2022-09-24T15:47:30.949Z,2.92
2022-09-24T15:52:34.133Z,3.25
2022-09-24T15:57:36.908Z,2.80
2022-09-24T16:02:41.177Z,2.80
2022-09-24T16:07:44.375Z,2.40
2022-09-24T16:12:46.903Z,3.22
2022-09-24T16:17:50.559Z,3.33
2022-09-24T16:22:54.352Z,2.90
2022-09-24T16:27:58.602Z,3.92
2022-09-24T16:33:01.113Z,3.03
2022-09-24T16:38:03.785Z,2.88
2022-09-24T16:43:06.445Z,3.08
2022-09-24T16:48:11.594Z,3.00
2022-09-24T16:53:14.482Z,3.33
2022-09-24T16:58:17.132Z,4.15
2022-09-24T17:03:22.518Z,3.15
2022-09-24T17:08:45.190Z,3.10
2022-09-24T17:13:48.344Z,3.63
2022-09-24T17:18:54.370Z,5.40
2022-09-24T17:24:19.172Z,2.88
2022-09-24T17:29:30.481Z,3.28
2022-09-24T17:34:34.049Z,3.22
2022-09-24T17:39:36.607Z,3.38
2022-09-24T17:44:39.091Z,3.38
2022-09-24T17:49:42.596Z,2.70
2022-09-24T17:54:48.038Z,2.88
2022-09-24T17:59:50.611Z,3.40
2022-09-24T18:04:53.128Z,3.40
2022-09-24T18:09:56.174Z,2.78
2022-09-24T18:14:59.940Z,2.65
2022-09-24T18:20:02.983Z,2.60
2022-09-24T18:25:07.219Z,3.03
2022-09-24T18:30:11.746Z,3.58
2022-09-24T18:35:14.327Z,2.92
2022-09-24T18:40:17.184Z,2.90
2022-09-24T18:45:20.631Z,2.47
2022-09-24T18:50:23.541Z,2.75
2022-09-24T18:55:26.548Z,2.80
2022-09-24T19:00:47.776Z,3.00
2022-09-24T19:05:51.635Z,2.83
2022-09-24T19:10:54.494Z,2.40
2022-09-24T19:15:57.028Z,2.53
2022-09-24T19:20:59.617Z,2.97
2022-09-24T19:26:03.475Z,2.38
2022-09-24T19:31:25.032Z,2.05
2022-09-24T19:36:27.667Z,2.83
2022-09-24T19:41:30.429Z,2.17
2022-09-24T19:46:33.479Z,2.30
2022-09-24T19:51:36.709Z,2.88
2022-09-24T19:56:41.511Z,2.65
2022-09-24T20:01:45.344Z,1.95
2022-09-24T20:06:48.090Z,2.30
2022-09-24T20:11:53.623Z,2.17
2022-09-24T20:16:56.165Z,2.45
2022-09-24T20:21:59.345Z,2.10
2022-09-24T20:27:20.535Z,2.33
2022-09-24T20:32:23.088Z,2.30
2022-09-24T20:37:25.569Z,2.05
2022-09-24T20:42:29.070Z,2.10
2022-09-24T20:47:31.558Z,2.20
2022-09-24T20:52:34.126Z,2.15
2022-09-24T20:57:56.653Z,2.28
2022-09-24T21:02:59.344Z,2.20
2022-09-24T21:08:08.544Z,2.25
2022-09-24T21:13:12.221Z,2.00
2022-09-24T21:18:22.887Z,2.00
2022-09-24T21:23:26.599Z,2.45
2022-09-24T21:28:29.410Z,2.33
2022-09-24T21:33:35.450Z,2.20
2022-09-24T21:38:38.467Z,2.10
2022-09-24T21:43:41.944Z,2.58
2022-09-24T21:48:44.774Z,2.10
2022-09-24T21:53:48.612Z,1.80
2022-09-24T21:58:52.576Z,2.33
2022-09-24T22:03:57.395Z,2.17
2022-09-24T22:09:05.494Z,2.30
2022-09-24T22:14:08.142Z,1.80
2022-09-24T22:19:10.869Z,2.08
2022-09-24T22:24:13.648Z,1.80
2022-09-24T22:29:16.850Z,1.90
2022-09-24T22:34:40.553Z,1.90
2022-09-24T22:39:43.296Z,2.10
2022-09-24T22:44:46.083Z,2.60
2022-09-24T22:49:48.561Z,1.67
2022-09-24T22:54:57.371Z,2.17
2022-09-24T23:00:01.405Z,2.00
2022-09-24T23:05:06.794Z,1.80
2022-09-24T23:10:09.792Z,1.85
2022-09-24T23:15:12.542Z,2.20
2022-09-24T23:20:15.203Z,2.03
2022-09-24T23:25:18.164Z,2.03
2022-09-24T23:30:22.123Z,1.80
2022-09-24T23:35:24.936Z,2.10
2022-09-24T23:40:29.564Z,2.15
2022-09-24T23:55:42.569Z,2.08
